Cumberland, North Carolina
Current Conditions -  °F | °C
As of 7:53 PM on Tuesday 21 Oct 2014 (Local Time) from KFAY Reporting Station
Broken Clouds Broken Clouds  
Wind Chill: 69°   Ceiling: 9000
Heat Index: 69°   Visibility: 10mi
Dew Point: 50°   Wind: 5mph
Humidity: 51%   Direction: 290°WNW
Pressure: 29.87"   Gusts: NA
Location:  35.01°N, 78.97°W
Report Text: KFAY 212353Z 29004KT 10SM BKN090 21/10 A2987 RMK AO2 SLP108 T02060100 10250 20200 53013
Loading
Personal Weather Stations






























Interactive Weather Map
Tropical Storm Tracking
New forecast layout! Learn more

10-Day Weather Forecast

Advertisements
Track Severe Weather on mobile